Time;durP1;ratioP1;P1;durP2;ratioP2;P2;SDS_P1;SDS_P2;PMS_P1;PMS_P2;Temp;Humidity;BMP_temperature;BMP_pressure;BME280_temperature;BME280_humidity;BME280_pressure;Samples;Min_cycle;Max_cycle;Signal;HPM_P1;HPM_P2
2020/12/25 00:01:58;;;;;;;10.80;5.03;;;4.20;99.90;;;;;;4972316;28;20027;-69
2020/12/25 00:04:23;;;;;;;10.40;4.80;;;4.20;99.90;;;;;;4978983;28;20041;-69
2020/12/25 00:06:49;;;;;;;14.73;5.28;;;4.20;99.90;;;;;;4980546;28;20042;-69
2020/12/25 00:09:15;;;;;;;11.05;4.90;;;4.20;99.90;;;;;;4981729;28;20066;-69
2020/12/25 00:11:40;;;;;;;11.13;5.13;;;4.20;99.90;;;;;;4975566;28;20030;-69
2020/12/25 00:14:06;;;;;;;11.98;5.25;;;4.20;99.90;;;;;;4979738;28;20070;-69
2020/12/25 00:16:32;;;;;;;11.60;4.93;;;4.20;99.90;;;;;;4980434;28;20541;-69
2020/12/25 00:18:58;;;;;;;9.25;4.75;;;4.20;99.90;;;;;;4981440;28;20034;-69
2020/12/25 00:21:24;;;;;;;11.45;5.05;;;4.20;99.90;;;;;;4980172;28;20030;-69
2020/12/25 00:23:50;;;;;;;12.52;4.90;;;4.20;99.90;;;;;;4980575;28;20133;-69
2020/12/25 00:26:28;;;;;;;9.43;4.53;;;4.10;99.90;;;;;;4982526;28;20057;-69
2020/12/25 00:28:55;;;;;;;7.78;4.43;;;4.20;99.90;;;;;;4981755;28;20035;-69
2020/12/25 00:31:33;;;;;;;10.18;4.70;;;4.20;99.90;;;;;;4977034;28;20047;-69
2020/12/25 00:34:02;;;;;;;15.55;5.65;;;4.20;99.90;;;;;;4979853;28;20597;-69
2020/12/25 00:36:33;;;;;;;12.70;4.65;;;4.10;99.90;;;;;;4977715;28;20121;-69
2020/12/25 00:39:00;;;;;;;12.15;4.72;;;4.10;99.90;;;;;;4980563;28;20501;-69
2020/12/25 00:41:26;;;;;;;10.68;4.68;;;4.20;99.90;;;;;;4976541;28;20027;-69
2020/12/25 00:43:53;;;;;;;11.23;4.60;;;4.20;99.90;;;;;;4979168;28;20902;-69
2020/12/25 00:46:19;;;;;;;10.20;4.75;;;4.20;99.90;;;;;;4979995;28;20042;-69
2020/12/25 00:48:45;;;;;;;8.55;4.65;;;4.20;99.90;;;;;;4978185;28;20383;-69
2020/12/25 00:51:22;;;;;;;8.32;4.55;;;4.20;99.90;;;;;;4976020;28;20056;-69
2020/12/25 00:53:49;;;;;;;9.18;4.43;;;4.30;99.90;;;;;;4972317;28;20038;-69
2020/12/25 00:56:17;;;;;;;7.78;4.35;;;4.30;99.90;;;;;;4971897;28;20162;-69
2020/12/25 00:58:47;;;;;;;8.93;4.40;;;4.30;99.90;;;;;;4978573;28;20030;-69
2020/12/25 01:01:14;;;;;;;13.60;4.53;;;4.20;99.90;;;;;;4975778;28;20069;-69
2020/12/25 01:03:41;;;;;;;10.15;4.85;;;4.30;99.90;;;;;;4979934;28;20034;-69
2020/12/25 01:06:11;;;;;;;9.25;4.82;;;4.30;99.90;;;;;;4980347;28;20041;-69
2020/12/25 01:08:38;;;;;;;11.25;4.50;;;4.30;99.90;;;;;;4980417;28;20066;-69
2020/12/25 01:11:05;;;;;;;14.68;4.18;;;4.30;99.90;;;;;;4977458;28;20741;-69
2020/12/25 01:13:32;;;;;;;16.27;4.70;;;4.30;99.90;;;;;;4977086;28;20097;-69
2020/12/25 01:16:05;;;;;;;9.65;4.45;;;4.30;99.90;;;;;;4974828;28;20038;-69
2020/12/25 01:18:31;;;;;;;12.07;4.28;;;4.30;99.90;;;;;;4978762;28;20030;-69
2020/12/25 01:20:57;;;;;;;9.82;4.55;;;4.20;99.90;;;;;;4974945;28;20053;-69
2020/12/25 01:23:23;;;;;;;9.02;4.15;;;4.20;99.90;;;;;;4972090;28;20486;-69
2020/12/25 01:25:49;;;;;;;13.50;4.75;;;4.20;99.90;;;;;;4977836;28;20049;-69
2020/12/25 01:28:15;;;;;;;6.50;3.67;;;4.30;99.90;;;;;;4979466;28;20089;-69
2020/12/25 01:30:41;;;;;;;6.55;3.50;;;4.30;99.90;;;;;;4961022;28;20108;-69
2020/12/25 01:33:07;;;;;;;10.95;4.28;;;4.30;99.90;;;;;;4975225;28;20195;-69
2020/12/25 01:35:32;;;;;;;10.70;3.90;;;4.30;99.90;;;;;;4972623;28;20515;-69
2020/12/25 01:37:58;;;;;;;10.18;3.78;;;4.30;99.90;;;;;;4975054;28;20034;-69
2020/12/25 01:40:24;;;;;;;14.27;5.00;;;4.30;99.90;;;;;;4975924;28;20033;-69
2020/12/25 01:42:49;;;;;;;6.60;3.30;;;4.20;99.90;;;;;;4961649;28;20022;-69
2020/12/25 01:45:15;;;;;;;9.23;3.17;;;4.10;99.90;;;;;;4974784;28;20860;-69
2020/12/25 01:47:41;;;;;;;6.30;3.05;;;4.10;99.90;;;;;;4974140;28;20764;-69
2020/12/25 01:50:08;;;;;;;14.13;3.30;;;4.00;99.90;;;;;;4979836;28;20054;-69
2020/12/25 01:52:36;;;;;;;6.65;2.90;;;4.10;99.90;;;;;;4974690;28;20039;-69
2020/12/25 01:55:04;;;;;;;5.53;2.78;;;4.10;99.90;;;;;;4976333;28;20250;-69
2020/12/25 01:57:30;;;;;;;5.97;2.80;;;4.00;99.90;;;;;;4975148;28;20042;-69
2020/12/25 01:59:57;;;;;;;6.72;2.63;;;4.00;99.90;;;;;;4975488;28;20039;-69
2020/12/25 02:02:24;;;;;;;7.35;2.97;;;4.00;99.90;;;;;;4974273;28;20031;-69
2020/12/25 02:04:51;;;;;;;6.60;2.40;;;3.90;99.90;;;;;;4977918;28;20037;-69
2020/12/25 02:07:16;;;;;;;6.20;2.10;;;3.90;99.90;;;;;;4977590;28;20030;-69
2020/12/25 02:09:42;;;;;;;4.85;2.20;;;3.80;99.90;;;;;;4976050;28;20034;-69
2020/12/25 02:12:08;;;;;;;6.00;2.00;;;3.80;99.90;;;;;;4973958;28;20109;-69
2020/12/25 02:14:34;;;;;;;3.92;1.90;;;3.90;99.90;;;;;;4974190;28;20469;-69
2020/12/25 02:17:00;;;;;;;5.28;1.95;;;3.90;99.90;;;;;;4974495;28;20762;-69
2020/12/25 02:19:26;;;;;;;6.25;2.00;;;3.80;99.90;;;;;;4978259;28;20112;-69
2020/12/25 02:21:51;;;;;;;4.00;1.60;;;3.70;99.90;;;;;;4979707;28;20125;-70
2020/12/25 02:24:17;;;;;;;5.40;2.58;;;3.70;99.90;;;;;;4975732;28;20408;-69
2020/12/25 02:26:43;;;;;;;2.78;1.65;;;3.60;99.90;;;;;;4977551;28;20053;-69
2020/12/25 02:29:09;;;;;;;4.18;1.90;;;3.60;99.90;;;;;;4977340;28;20129;-69
2020/12/25 02:31:34;;;;;;;4.20;1.40;;;3.60;99.90;;;;;;4978577;28;20704;-69
2020/12/25 02:34:00;;;;;;;2.97;1.48;;;3.60;99.90;;;;;;4972200;28;20088;-69
2020/12/25 02:36:26;;;;;;;2.58;1.48;;;3.60;99.90;;;;;;4980731;28;20517;-69
2020/12/25 02:38:51;;;;;;;3.50;1.60;;;3.50;99.90;;;;;;4976648;28;20031;-69
2020/12/25 02:41:17;;;;;;;4.38;1.70;;;3.40;99.90;;;;;;4978598;28;20706;-69
2020/12/25 02:43:42;;;;;;;2.97;1.35;;;3.40;99.90;;;;;;4976872;28;20098;-69
2020/12/25 02:46:08;;;;;;;2.92;1.70;;;3.30;99.90;;;;;;4980602;28;20929;-69
2020/12/25 02:48:34;;;;;;;4.00;1.40;;;3.30;99.90;;;;;;4976459;28;20071;-69
2020/12/25 02:51:00;;;;;;;3.47;1.92;;;3.20;99.90;;;;;;4981549;28;20128;-69
2020/12/25 02:53:25;;;;;;;4.10;1.50;;;3.20;99.90;;;;;;4975340;28;20038;-69
2020/12/25 02:55:51;;;;;;;3.22;1.20;;;3.10;99.90;;;;;;4981529;28;20039;-69
2020/12/25 02:58:17;;;;;;;2.75;1.17;;;3.10;99.90;;;;;;4977802;28;20430;-69
2020/12/25 03:00:42;;;;;;;3.25;1.48;;;3.00;99.90;;;;;;4982374;28;20088;-69
2020/12/25 03:03:08;;;;;;;5.03;1.20;;;3.00;99.90;;;;;;4980363;28;20070;-69
2020/12/25 03:05:33;;;;;;;4.70;1.55;;;3.00;99.90;;;;;;4995893;28;20034;-69
2020/12/25 03:07:59;;;;;;;5.65;1.55;;;3.00;99.90;;;;;;4979334;28;20034;-69
2020/12/25 03:10:25;;;;;;;3.10;1.50;;;3.00;99.90;;;;;;4982183;28;20070;-69
2020/12/25 03:12:50;;;;;;;2.95;1.40;;;3.00;99.90;;;;;;4977283;28;20029;-69
2020/12/25 03:15:16;;;;;;;2.60;1.42;;;3.00;99.90;;;;;;4976590;28;20041;-69
2020/12/25 03:17:42;;;;;;;7.07;1.63;;;3.10;99.90;;;;;;4979245;28;20848;-69
2020/12/25 03:20:07;;;;;;;6.38;1.90;;;3.10;99.90;;;;;;4982325;28;20068;-69
2020/12/25 03:22:33;;;;;;;4.38;1.90;;;3.10;99.90;;;;;;4979176;28;20065;-69
2020/12/25 03:24:59;;;;;;;3.55;2.10;;;3.20;99.90;;;;;;4980083;28;20034;-69
2020/12/25 03:27:24;;;;;;;6.28;2.22;;;3.20;99.90;;;;;;4980317;28;20077;-69
2020/12/25 03:29:50;;;;;;;7.95;2.30;;;3.30;99.90;;;;;;4979362;28;20913;-69
2020/12/25 03:32:16;;;;;;;3.80;1.60;;;3.30;99.90;;;;;;4974323;28;20430;-69
2020/12/25 03:34:41;;;;;;;6.53;2.28;;;3.30;99.90;;;;;;4980478;28;20053;-69
2020/12/25 03:37:07;;;;;;;7.72;2.17;;;3.20;99.90;;;;;;4976418;28;20235;-69
2020/12/25 03:39:32;;;;;;;5.80;2.20;;;3.20;99.90;;;;;;4978646;28;20034;-69
2020/12/25 03:41:58;;;;;;;6.00;2.20;;;3.20;99.90;;;;;;4975823;28;20027;-69
2020/12/25 03:44:24;;;;;;;4.05;2.63;;;3.20;99.90;;;;;;4977866;28;20816;-69
2020/12/25 03:46:49;;;;;;;4.65;2.10;;;3.30;99.90;;;;;;4977230;28;20126;-69
2020/12/25 03:49:15;;;;;;;5.82;2.30;;;3.30;99.90;;;;;;4973838;28;20038;-69
2020/12/25 03:51:41;;;;;;;2.83;1.88;;;3.30;99.90;;;;;;4978034;28;20030;-69
2020/12/25 03:54:07;;;;;;;4.15;1.75;;;3.30;99.90;;;;;;4976590;28;20145;-69
2020/12/25 03:56:32;;;;;;;3.72;2.00;;;3.30;99.90;;;;;;4976162;28;20146;-69
2020/12/25 03:58:58;;;;;;;5.57;1.65;;;3.30;99.90;;;;;;4981458;28;20034;-69
2020/12/25 04:01:23;;;;;;;3.25;1.50;;;3.30;99.90;;;;;;4979189;28;20082;-69
2020/12/25 04:03:49;;;;;;;6.22;2.13;;;3.20;99.90;;;;;;4981509;28;20035;-69
2020/12/25 04:06:15;;;;;;;5.28;1.50;;;3.30;99.90;;;;;;4976652;28;20054;-69
2020/12/25 04:08:41;;;;;;;4.65;1.30;;;3.30;99.90;;;;;;4978914;28;20042;-69
2020/12/25 04:11:08;;;;;;;6.35;1.50;;;3.20;99.90;;;;;;4976378;28;20039;-69
2020/12/25 04:13:33;;;;;;;7.13;1.33;;;3.20;99.90;;;;;;4981394;28;20406;-69
2020/12/25 04:16:01;;;;;;;5.68;1.40;;;3.20;99.90;;;;;;4980632;28;20034;-69
2020/12/25 04:18:26;;;;;;;6.57;2.67;;;3.20;99.90;;;;;;4976201;28;20097;-69
2020/12/25 04:20:52;;;;;;;2.30;1.20;;;3.20;99.90;;;;;;4980654;28;20026;-69
2020/12/25 04:23:18;;;;;;;8.75;1.45;;;3.20;99.90;;;;;;4977756;28;20775;-69
2020/12/25 04:25:43;;;;;;;2.60;1.27;;;3.20;99.90;;;;;;4980227;28;20033;-69
2020/12/25 04:28:09;;;;;;;3.83;1.13;;;3.20;99.90;;;;;;4981067;28;20114;-69
2020/12/25 04:30:35;;;;;;;7.03;1.10;;;3.30;99.90;;;;;;4976942;28;20034;-69
2020/12/25 04:33:00;;;;;;;3.90;1.30;;;3.20;99.90;;;;;;4975255;28;20031;-69
2020/12/25 04:35:26;;;;;;;4.20;1.13;;;3.20;99.90;;;;;;4974753;28;20121;-69
2020/12/25 04:37:52;;;;;;;3.05;1.45;;;3.30;99.90;;;;;;4979346;28;20030;-70
2020/12/25 04:40:17;;;;;;;4.63;1.40;;;3.30;99.90;;;;;;4977843;28;20406;-69
2020/12/25 04:42:51;;;;;;;8.38;1.52;;;3.20;99.90;;;;;;4977381;28;20030;-71
2020/12/25 04:45:17;;;;;;;2.08;1.35;;;3.30;99.90;;;;;;4972795;28;20310;-68
2020/12/25 04:47:46;;;;;;;4.47;1.33;;;3.20;99.90;;;;;;4974606;28;20038;-68
2020/12/25 04:50:12;;;;;;;2.25;1.20;;;3.30;99.90;;;;;;4975263;28;20554;-68
2020/12/25 04:52:38;;;;;;;3.60;1.25;;;3.30;99.90;;;;;;4977347;28;20305;-69
2020/12/25 04:55:04;;;;;;;3.22;1.42;;;3.30;99.90;;;;;;4974463;28;20542;-71
2020/12/25 04:57:29;;;;;;;2.05;1.35;;;3.30;99.90;;;;;;4962363;28;20038;-71
2020/12/25 04:59:55;;;;;;;2.60;1.67;;;3.20;99.90;;;;;;4976886;28;20452;-71
2020/12/25 05:02:21;;;;;;;4.05;1.33;;;3.20;99.90;;;;;;4977221;28;20734;-71
2020/12/25 05:04:47;;;;;;;2.67;1.38;;;3.20;99.90;;;;;;4978314;28;20542;-70
2020/12/25 05:07:17;;;;;;;7.50;1.90;;;3.20;99.90;;;;;;4975552;28;20042;-69
2020/12/25 05:09:44;;;;;;;2.30;1.17;;;3.20;99.90;;;;;;4979488;28;20049;-69
2020/12/25 05:12:14;;;;;;;3.58;1.20;;;3.10;99.90;;;;;;4975960;28;20042;-69
2020/12/25 05:14:42;;;;;;;4.28;1.50;;;3.10;99.90;;;;;;4976605;28;20874;-69
2020/12/25 05:17:11;;;;;;;5.22;1.58;;;3.10;99.90;;;;;;4975640;28;20038;-70
2020/12/25 05:19:40;;;;;;;4.88;2.03;;;3.10;99.90;;;;;;4976725;28;20038;-72
2020/12/25 05:22:07;;;;;;;11.15;3.50;;;3.00;99.90;;;;;;4973358;28;20077;-70
2020/12/25 05:24:38;;;;;;;8.48;3.03;;;3.10;99.90;;;;;;4977043;28;20026;-70
2020/12/25 05:27:11;;;;;;;10.70;5.03;;;3.10;99.90;;;;;;4979066;28;20111;-70
2020/12/25 05:29:38;;;;;;;7.47;2.88;;;3.10;99.90;;;;;;4975439;28;20108;-69
2020/12/25 05:32:05;;;;;;;11.90;8.63;;;3.10;99.90;;;;;;4974527;28;20084;-69
2020/12/25 05:34:33;;;;;;;20.48;12.60;;;3.10;99.90;;;;;;4978439;28;20432;-69
2020/12/25 05:37:01;;;;;;;15.10;10.55;;;3.10;99.90;;;;;;4974481;28;20544;-69
2020/12/25 05:39:33;;;;;;;9.18;6.07;;;3.00;99.90;;;;;;4971869;28;20100;-69
2020/12/25 05:42:04;;;;;;;13.23;6.38;;;3.10;99.90;;;;;;4985578;28;20034;-68
2020/12/25 05:44:35;;;;;;;6.47;3.30;;;3.10;99.90;;;;;;4973336;28;20042;-71
2020/12/25 05:47:02;;;;;;;6.70;4.07;;;2.90;99.90;;;;;;4976906;28;20152;-70
2020/12/25 05:49:29;;;;;;;14.73;5.35;;;2.90;99.90;;;;;;4980092;28;20126;-70
2020/12/25 05:51:56;;;;;;;11.88;4.97;;;2.80;99.90;;;;;;4977664;28;20038;-70
2020/12/25 05:54:24;;;;;;;4.72;1.65;;;2.80;99.90;;;;;;4975557;28;20031;-69
2020/12/25 05:56:54;;;;;;;6.95;1.70;;;2.80;99.90;;;;;;4979188;28;20065;-69
2020/12/25 05:59:29;;;;;;;7.35;2.58;;;2.90;99.90;;;;;;4974699;28;20039;-69
2020/12/25 06:01:56;;;;;;;6.68;3.92;;;2.90;99.90;;;;;;4979342;28;20138;-69
2020/12/25 06:04:23;;;;;;;3.45;1.90;;;2.80;99.90;;;;;;4955863;28;20077;-69
2020/12/25 06:06:50;;;;;;;3.40;1.70;;;2.80;99.90;;;;;;4979858;28;20042;-69
2020/12/25 06:09:17;;;;;;;5.30;2.92;;;2.80;99.90;;;;;;4979581;28;20049;-69
2020/12/25 06:11:47;;;;;;;5.85;2.38;;;2.70;99.90;;;;;;4978173;28;20088;-69
2020/12/25 06:14:13;;;;;;;7.72;1.90;;;2.70;99.90;;;;;;4980221;28;20049;-69
2020/12/25 06:16:50;;;;;;;10.95;4.43;;;2.70;99.90;;;;;;4983236;28;20116;-69
2020/12/25 06:19:25;;;;;;;6.82;2.95;;;2.80;99.90;;;;;;4982566;28;20378;-69
2020/12/25 06:22:00;;;;;;;4.25;2.58;;;2.80;99.90;;;;;;4978194;28;20030;-69
2020/12/25 06:24:37;;;;;;;3.50;1.60;;;2.80;99.90;;;;;;4981244;28;20870;-69
2020/12/25 06:27:05;;;;;;;5.28;2.20;;;2.70;99.90;;;;;;4977977;28;20046;-70
2020/12/25 06:29:30;;;;;;;8.85;1.75;;;2.70;99.90;;;;;;4976287;28;20101;-70
2020/12/25 06:31:57;;;;;;;4.53;2.50;;;2.70;99.90;;;;;;4973191;28;20827;-70
2020/12/25 06:34:46;;;;;;;3.80;1.90;;;2.70;99.90;;;;;;4977045;28;20039;-71
2020/12/25 06:37:14;;;;;;;7.32;2.83;;;2.70;99.90;;;;;;4978613;28;20034;-77
2020/12/25 06:39:55;;;;;;;4.30;2.20;;;2.80;99.90;;;;;;4982967;28;20030;-69
2020/12/25 06:42:27;;;;;;;3.10;1.52;;;2.90;99.90;;;;;;4972183;28;20038;-69
2020/12/25 06:44:56;;;;;;;4.45;1.75;;;2.90;99.90;;;;;;4970819;28;20062;-70
2020/12/25 06:47:34;;;;;;;4.38;1.70;;;2.90;99.90;;;;;;4979259;28;20450;-70
2020/12/25 06:50:08;;;;;;;3.58;1.42;;;2.80;99.90;;;;;;4971688;28;20035;-70
2020/12/25 06:52:53;;;;;;;4.28;1.13;;;2.80;99.90;;;;;;4978593;28;20034;-69
2020/12/25 06:55:36;;;;;;;2.22;1.33;;;2.80;99.90;;;;;;4978036;28;20585;-70
2020/12/25 06:58:05;;;;;;;1.63;1.10;;;2.70;99.90;;;;;;4979937;28;20038;-69
2020/12/25 07:00:31;;;;;;;4.47;1.58;;;2.70;99.90;;;;;;4975790;28;20036;-70
2020/12/25 07:03:12;;;;;;;6.57;1.38;;;2.70;99.90;;;;;;4977741;28;20460;-72
2020/12/25 07:05:46;;;;;;;3.30;1.08;;;2.70;99.90;;;;;;4970292;28;20746;-70
2020/12/25 07:08:27;;;;;;;3.30;0.90;;;2.60;99.90;;;;;;4967926;28;20031;-71
2020/12/25 07:11:01;;;;;;;4.75;0.93;;;2.60;99.90;;;;;;4980413;28;20034;-71
2020/12/25 07:13:29;;;;;;;2.83;0.98;;;2.60;99.90;;;;;;4981197;28;20034;-71
2020/12/25 07:15:55;;;;;;;2.75;0.88;;;2.60;99.90;;;;;;4975663;28;20046;-71
2020/12/25 07:18:20;;;;;;;5.53;1.45;;;2.60;99.90;;;;;;4975020;28;20062;-71
2020/12/25 07:20:46;;;;;;;5.32;1.38;;;2.60;99.90;;;;;;4978655;28;20038;-71
2020/12/25 07:23:12;;;;;;;3.80;1.20;;;2.60;99.90;;;;;;4975275;28;20442;-71
2020/12/25 07:25:42;;;;;;;12.93;3.58;;;2.50;99.90;;;;;;4973068;28;20116;-71
2020/12/25 07:28:08;;;;;;;3.75;1.40;;;2.50;99.90;;;;;;4971578;28;20725;-71
2020/12/25 07:30:34;;;;;;;14.55;4.53;;;2.50;99.90;;;;;;4979174;28;20038;-71
2020/12/25 07:33:02;;;;;;;7.57;4.07;;;2.50;99.90;;;;;;4971469;28;20506;-69
2020/12/25 07:35:28;;;;;;;5.75;2.03;;;2.50;99.90;;;;;;4972960;28;20571;-70
2020/12/25 07:37:54;;;;;;;3.67;1.10;;;2.50;99.90;;;;;;4973295;28;20030;-70
2020/12/25 07:40:20;;;;;;;3.20;1.40;;;2.30;99.90;;;;;;4977780;28;20103;-70
2020/12/25 07:42:47;;;;;;;6.53;3.10;;;2.30;99.90;;;;;;4974852;28;20085;-70
2020/12/25 07:45:13;;;;;;;3.33;2.28;;;2.20;99.90;;;;;;4974124;28;20030;-70
2020/12/25 07:47:39;;;;;;;3.22;1.80;;;2.20;99.90;;;;;;4984742;28;20816;-70
2020/12/25 07:50:05;;;;;;;7.07;3.25;;;2.20;99.90;;;;;;4976183;28;20038;-70
2020/12/25 07:52:31;;;;;;;4.88;1.50;;;2.20;99.90;;;;;;4976510;28;20100;-70
2020/12/25 07:54:57;;;;;;;3.75;1.58;;;2.30;99.90;;;;;;4973501;28;20030;-72
2020/12/25 07:57:23;;;;;;;4.85;2.10;;;2.40;99.90;;;;;;4976986;28;20466;-76
2020/12/25 07:59:49;;;;;;;94.60;32.63;;;2.40;99.90;;;;;;4975925;28;20038;-73
2020/12/25 08:02:17;;;;;;;18.25;6.95;;;2.40;99.90;;;;;;4959157;28;20030;-72
2020/12/25 08:04:45;;;;;;;17.77;8.73;;;2.40;99.90;;;;;;4981351;28;20490;-72
2020/12/25 08:07:11;;;;;;;5.65;2.60;;;2.50;99.90;;;;;;4977365;28;20045;-72
2020/12/25 08:09:38;;;;;;;11.65;5.70;;;2.50;99.90;;;;;;4979086;28;20034;-72
2020/12/25 08:12:09;;;;;;;5.57;2.53;;;2.70;99.90;;;;;;4980642;28;20038;-71
2020/12/25 08:14:38;;;;;;;2.72;1.52;;;2.80;99.90;;;;;;4980440;28;20035;-72
2020/12/25 08:17:04;;;;;;;12.50;4.63;;;2.70;99.90;;;;;;4972802;28;20062;-71
2020/12/25 08:19:36;;;;;;;3.30;2.00;;;2.70;99.90;;;;;;4976043;28;20569;-74
2020/12/25 08:22:04;;;;;;;3.22;1.42;;;2.80;99.90;;;;;;4973327;28;20034;-72
2020/12/25 08:24:30;;;;;;;6.55;3.47;;;2.90;99.90;;;;;;4978014;28;20035;-71
2020/12/25 08:27:01;;;;;;;10.02;3.90;;;2.90;99.90;;;;;;4973485;28;20392;-71
2020/12/25 08:29:32;;;;;;;5.75;2.30;;;2.90;99.90;;;;;;4962424;28;20134;-71
2020/12/25 08:32:08;;;;;;;2.97;1.92;;;2.90;99.90;;;;;;4977806;28;20171;-71
2020/12/25 08:34:34;;;;;;;7.20;2.10;;;3.00;99.90;;;;;;4977567;28;20774;-72
2020/12/25 08:37:01;;;;;;;9.93;2.53;;;3.00;99.90;;;;;;4972186;28;20046;-71
2020/12/25 08:39:28;;;;;;;5.22;1.73;;;3.00;99.90;;;;;;4979892;28;20038;-71
2020/12/25 08:41:55;;;;;;;13.98;2.40;;;3.10;99.90;;;;;;4975077;28;20037;-71
2020/12/25 08:44:21;;;;;;;3.95;2.35;;;3.10;99.90;;;;;;4975609;28;20513;-71
2020/12/25 08:46:47;;;;;;;9.50;2.28;;;3.20;99.90;;;;;;4971936;28;20121;-71
2020/12/25 08:49:27;;;;;;;4.50;3.00;;;3.10;99.90;;;;;;4979248;28;20045;-71
2020/12/25 08:51:53;;;;;;;12.32;6.03;;;3.10;99.90;;;;;;4971986;28;20093;-71
2020/12/25 08:54:30;;;;;;;16.13;7.80;;;3.20;99.90;;;;;;4978405;28;20052;-71
2020/12/25 08:56:56;;;;;;;9.18;5.03;;;3.20;99.90;;;;;;4972523;28;20487;-71
2020/12/25 08:59:22;;;;;;;4.85;1.63;;;3.30;99.90;;;;;;4974812;28;20040;-71
2020/12/25 09:01:50;;;;;;;5.05;2.33;;;3.40;99.90;;;;;;4980266;28;20114;-71
2020/12/25 09:04:19;;;;;;;2.08;1.10;;;3.50;99.90;;;;;;4977140;28;20125;-71
2020/12/25 09:06:48;;;;;;;3.08;1.42;;;3.50;99.90;;;;;;4977173;28;20715;-71
2020/12/25 09:09:14;;;;;;;4.30;1.60;;;3.60;99.90;;;;;;4976689;28;20046;-71
2020/12/25 09:11:40;;;;;;;4.88;1.50;;;3.60;99.90;;;;;;4968010;28;20049;-71
2020/12/25 09:14:05;;;;;;;10.57;3.33;;;3.50;99.90;;;;;;4967446;28;20462;-71
2020/12/25 09:16:31;;;;;;;5.88;2.63;;;3.50;99.90;;;;;;4976680;28;20042;-71
2020/12/25 09:18:59;;;;;;;18.25;6.63;;;3.60;99.90;;;;;;4979667;28;20019;-71
2020/12/25 09:21:27;;;;;;;16.73;7.03;;;3.60;99.90;;;;;;4980287;28;20040;-71
2020/12/25 09:23:54;;;;;;;3.38;1.45;;;3.70;99.90;;;;;;4970464;28;20544;-71
2020/12/25 09:26:20;;;;;;;13.25;4.55;;;3.70;99.90;;;;;;4971432;28;20043;-70
2020/12/25 09:28:45;;;;;;;9.27;4.60;;;3.70;99.90;;;;;;4979003;28;20030;-72
2020/12/25 09:31:13;;;;;;;8.60;3.50;;;3.70;99.90;;;;;;4978253;28;20599;-71
2020/12/25 09:33:39;;;;;;;7.10;3.42;;;3.80;99.90;;;;;;4977283;28;20795;-72
2020/12/25 09:36:06;;;;;;;3.47;1.08;;;3.90;99.90;;;;;;4974780;28;20101;-72
2020/12/25 09:38:32;;;;;;;3.47;1.45;;;3.90;99.90;;;;;;4968954;28;20796;-73
2020/12/25 09:40:58;;;;;;;3.90;1.10;;;3.90;99.90;;;;;;4966285;28;20034;-72
2020/12/25 09:43:24;;;;;;;6.05;1.70;;;4.00;99.90;;;;;;4974664;28;20044;-72
2020/12/25 09:45:49;;;;;;;4.30;1.30;;;3.90;99.90;;;;;;4977950;28;20180;-72
2020/12/25 09:48:15;;;;;;;3.75;1.88;;;4.00;99.90;;;;;;4974932;28;20070;-72
2020/12/25 09:50:44;;;;;;;4.68;1.55;;;4.00;99.90;;;;;;4965474;28;20080;-73
2020/12/25 09:53:10;;;;;;;16.13;6.32;;;4.00;99.90;;;;;;4969383;28;20206;-71
2020/12/25 09:55:40;;;;;;;9.05;3.10;;;4.00;99.90;;;;;;4992446;28;20767;-71
2020/12/25 09:58:07;;;;;;;4.05;1.98;;;4.10;99.90;;;;;;4992845;28;20116;-71
2020/12/25 10:00:32;;;;;;;2.63;1.30;;;4.20;99.90;;;;;;4970785;28;20557;-69
2020/12/25 10:02:58;;;;;;;8.05;1.50;;;4.30;99.90;;;;;;4971088;28;20042;-70
2020/12/25 10:05:24;;;;;;;1.90;0.80;;;4.30;99.90;;;;;;4973401;28;20019;-70
2020/12/25 10:07:52;;;;;;;10.27;1.35;;;4.40;99.90;;;;;;4973250;28;20584;-70
2020/12/25 10:10:22;;;;;;;4.10;0.90;;;4.30;99.90;;;;;;4955223;28;20090;-69
2020/12/25 10:12:49;;;;;;;4.70;1.27;;;4.30;99.90;;;;;;4969462;28;20034;-69
2020/12/25 10:15:15;;;;;;;6.53;1.63;;;4.30;99.90;;;;;;4968958;28;20617;-70
2020/12/25 10:17:40;;;;;;;3.58;0.95;;;4.20;99.90;;;;;;4968939;28;20178;-72
2020/12/25 10:20:06;;;;;;;5.20;1.45;;;4.30;99.90;;;;;;4972011;28;20775;-72
2020/12/25 10:22:32;;;;;;;7.05;2.63;;;4.40;99.90;;;;;;4971869;28;20088;-71
2020/12/25 10:24:58;;;;;;;2.72;1.13;;;4.40;99.90;;;;;;4974290;28;20945;-70
2020/12/25 10:27:25;;;;;;;3.20;1.00;;;4.50;99.90;;;;;;4977331;28;20038;-69
2020/12/25 10:29:51;;;;;;;3.55;0.90;;;4.50;99.90;;;;;;4970588;28;20031;-69
2020/12/25 10:32:16;;;;;;;6.63;1.10;;;4.60;99.90;;;;;;4969148;28;20347;-69
2020/12/25 10:34:42;;;;;;;4.03;1.00;;;4.50;99.90;;;;;;4982645;28;20520;-69
2020/12/25 10:37:08;;;;;;;4.38;1.30;;;4.40;99.90;;;;;;4958464;28;20770;-69
2020/12/25 10:39:34;;;;;;;4.90;1.20;;;4.40;99.90;;;;;;4973928;28;20394;-69
2020/12/25 10:42:00;;;;;;;4.65;2.03;;;4.40;99.90;;;;;;4972982;28;20050;-69
2020/12/25 10:44:25;;;;;;;5.28;1.00;;;4.40;99.90;;;;;;4967072;28;20085;-69
2020/12/25 10:46:51;;;;;;;5.68;1.50;;;4.40;99.90;;;;;;4972279;28;20058;-69
2020/12/25 10:49:17;;;;;;;5.00;1.00;;;4.50;99.90;;;;;;4978344;28;20694;-69
2020/12/25 10:51:46;;;;;;;2.55;1.08;;;4.60;99.90;;;;;;4977430;28;20627;-69
2020/12/25 10:54:12;;;;;;;5.13;1.05;;;4.50;99.90;;;;;;4977988;28;20930;-69
2020/12/25 10:56:38;;;;;;;4.13;1.00;;;4.50;99.90;;;;;;4974300;28;20037;-69
2020/12/25 10:59:03;;;;;;;8.52;1.65;;;4.40;99.90;;;;;;4976608;28;20039;-69
2020/12/25 11:01:30;;;;;;;8.85;2.35;;;4.40;99.90;;;;;;4980107;28;20041;-70
2020/12/25 11:03:57;;;;;;;8.35;1.05;;;4.50;99.90;;;;;;4977127;28;20792;-69
2020/12/25 11:06:38;;;;;;;8.85;2.35;;;4.50;99.90;;;;;;4977985;28;20710;-70
2020/12/25 11:09:06;;;;;;;14.68;4.28;;;4.50;99.90;;;;;;4974639;28;20058;-71
2020/12/25 11:11:34;;;;;;;2.95;1.20;;;4.50;99.90;;;;;;4979760;28;20045;-71
2020/12/25 11:14:00;;;;;;;6.35;3.03;;;4.60;99.90;;;;;;4980851;28;20050;-70
2020/12/25 11:16:27;;;;;;;9.55;4.32;;;4.50;99.90;;;;;;4978509;28;20553;-70
2020/12/25 11:18:54;;;;;;;6.43;1.83;;;4.50;99.90;;;;;;4975725;28;20393;-71
2020/12/25 11:21:32;;;;;;;5.97;0.95;;;4.60;99.90;;;;;;4980706;28;20138;-70
2020/12/25 11:24:00;;;;;;;3.75;1.10;;;4.70;99.90;;;;;;4983749;28;20058;-71
2020/12/25 11:26:36;;;;;;;6.82;1.10;;;4.70;99.90;;;;;;4974577;28;20049;-70
2020/12/25 11:29:06;;;;;;;4.38;1.10;;;4.60;99.90;;;;;;4974080;28;20517;-70
2020/12/25 11:31:35;;;;;;;2.88;0.90;;;4.50;99.90;;;;;;4973338;28;20038;-71
2020/12/25 11:34:00;;;;;;;7.20;1.75;;;4.50;99.90;;;;;;4981331;28;20085;-70
2020/12/25 11:36:34;;;;;;;9.18;1.42;;;4.50;99.90;;;;;;4982084;28;20772;-75
2020/12/25 11:39:01;;;;;;;4.20;1.15;;;4.50;99.90;;;;;;4966688;28;20127;-71
2020/12/25 11:41:27;;;;;;;6.80;1.30;;;4.40;99.90;;;;;;4969390;28;20042;-72
2020/12/25 11:43:55;;;;;;;12.00;3.03;;;4.30;99.90;;;;;;4972198;28;20031;-72
2020/12/25 11:46:23;;;;;;;13.48;4.85;;;4.40;99.90;;;;;;4974176;28;20383;-72
2020/12/25 11:48:50;;;;;;;7.95;4.63;;;4.50;99.90;;;;;;4982034;28;20042;-71
2020/12/25 11:51:24;;;;;;;16.00;9.20;;;4.50;99.90;;;;;;4966296;28;20039;-71
2020/12/25 11:53:51;;;;;;;2.63;1.10;;;4.50;99.90;;;;;;4967181;28;20145;-72
2020/12/25 11:56:18;;;;;;;3.75;1.20;;;4.50;99.90;;;;;;4969194;28;20398;-72
2020/12/25 11:58:43;;;;;;;3.53;1.50;;;4.40;99.90;;;;;;4973461;28;20041;-71
2020/12/25 12:01:09;;;;;;;7.03;2.90;;;4.40;99.90;;;;;;4972278;28;20038;-72
2020/12/25 12:03:35;;;;;;;4.70;1.52;;;4.30;99.90;;;;;;4975199;28;20470;-71
2020/12/25 12:06:00;;;;;;;3.42;0.70;;;4.20;99.90;;;;;;4965645;28;20391;-71
2020/12/25 12:08:26;;;;;;;4.95;1.23;;;4.10;99.90;;;;;;4992277;28;20066;-72
2020/12/25 12:10:52;;;;;;;6.15;0.98;;;4.20;99.90;;;;;;4981488;28;20479;-71
2020/12/25 12:13:17;;;;;;;4.07;1.73;;;4.10;99.90;;;;;;4980252;28;20034;-74
2020/12/25 12:15:43;;;;;;;6.20;1.42;;;4.20;99.90;;;;;;4972984;28;20606;-72
2020/12/25 12:18:09;;;;;;;4.40;1.58;;;4.10;99.90;;;;;;4971941;28;20034;-72
2020/12/25 12:20:36;;;;;;;4.18;0.90;;;4.10;99.90;;;;;;4978307;28;20046;-72
2020/12/25 12:23:02;;;;;;;1.23;0.68;;;4.20;99.90;;;;;;4978540;28;20031;-73
2020/12/25 12:25:28;;;;;;;3.35;1.60;;;4.20;99.90;;;;;;4973453;28;20049;-72
2020/12/25 12:27:54;;;;;;;2.85;1.10;;;4.10;99.90;;;;;;4979031;28;20460;-73
2020/12/25 12:30:20;;;;;;;3.10;1.40;;;4.10;99.90;;;;;;4973110;28;20110;-73
2020/12/25 12:32:46;;;;;;;5.07;1.08;;;4.10;99.90;;;;;;4973749;28;20894;-73
2020/12/25 12:35:11;;;;;;;2.40;1.00;;;4.00;99.90;;;;;;4969634;28;20533;-73
2020/12/25 12:37:37;;;;;;;1.85;0.70;;;4.10;99.90;;;;;;4969902;28;20045;-72
2020/12/25 12:40:04;;;;;;;4.53;1.40;;;4.00;99.90;;;;;;4973010;28;20454;-72
2020/12/25 12:42:34;;;;;;;5.80;1.90;;;4.10;99.90;;;;;;4976297;28;20081;-71
2020/12/25 12:45:09;;;;;;;1.60;0.82;;;4.10;99.90;;;;;;4969943;28;20081;-71
2020/12/25 12:47:38;;;;;;;2.08;0.70;;;4.00;99.90;;;;;;4978306;28;20034;-71
2020/12/25 12:50:05;;;;;;;5.43;2.13;;;4.00;99.90;;;;;;4968098;28;20134;-71
2020/12/25 12:52:31;;;;;;;2.25;1.05;;;4.00;99.90;;;;;;4971873;28;20039;-72
2020/12/25 12:54:57;;;;;;;7.53;2.65;;;4.10;99.90;;;;;;4971509;28;20030;-72
2020/12/25 12:57:23;;;;;;;6.78;2.67;;;4.00;99.90;;;;;;4976143;28;20066;-72